Time;durP1;ratioP1;P1;durP2;ratioP2;P2;SDS_P1;SDS_P2;PMS_P1;PMS_P2;Temp;Humidity;BMP_temperature;BMP_pressure;BME280_temperature;BME280_humidity;BME280_pressure;Samples;Min_cycle;Max_cycle;Signal;HPM_P1;HPM_P2
2022/12/04 00:01:05;;;;;;;15.40;10.13;;;;;;;9.91;72.47;95508.91;5012656;28;20656;-49
2022/12/04 00:03:32;;;;;;;14.87;9.80;;;;;;;9.91;72.66;95519.13;5012336;28;20258;-48
2022/12/04 00:06:09;;;;;;;12.97;9.93;;;;;;;9.87;72.81;95522.00;5012903;28;20390;-48
2022/12/04 00:08:36;;;;;;;11.07;8.60;;;;;;;9.85;72.78;95527.25;5011548;28;20199;-48
2022/12/04 00:11:04;;;;;;;13.73;9.00;;;;;;;9.85;72.75;95531.53;5012486;28;20670;-48
2022/12/04 00:13:31;;;;;;;14.13;9.27;;;;;;;9.84;72.88;95524.78;5012288;28;20199;-47
2022/12/04 00:15:59;;;;;;;12.60;9.17;;;;;;;9.82;72.84;95529.22;5012673;28;20185;-48
2022/12/04 00:18:27;;;;;;;12.40;9.53;;;;;;;9.76;72.92;95531.28;5011345;28;20667;-47
2022/12/04 00:20:54;;;;;;;13.83;9.47;;;;;;;9.76;72.90;95538.13;5012133;28;20770;-47
2022/12/04 00:23:21;;;;;;;11.60;8.67;;;;;;;9.77;72.92;95537.19;5011806;28;20192;-47
2022/12/04 00:25:48;;;;;;;17.80;10.10;;;;;;;9.74;72.76;95543.34;5012536;28;20192;-48
2022/12/04 00:28:17;;;;;;;14.80;9.93;;;;;;;9.73;73.01;95538.34;5012353;28;20185;-49
2022/12/04 00:30:44;;;;;;;14.37;9.60;;;;;;;9.72;73.06;95532.44;5011863;28;20293;-48
2022/12/04 00:33:12;;;;;;;11.80;9.00;;;;;;;9.70;73.02;95534.28;5012133;28;20196;-48
2022/12/04 00:35:40;;;;;;;13.37;10.03;;;;;;;9.70;72.92;95538.56;5012266;28;20184;-47
2022/12/04 00:38:07;;;;;;;13.40;9.47;;;;;;;9.67;72.87;95537.06;5011176;28;20235;-48
2022/12/04 00:40:34;;;;;;;12.10;9.63;;;;;;;9.66;72.87;95534.59;5011475;28;20192;-48
2022/12/04 00:43:01;;;;;;;12.50;8.97;;;;;;;9.65;72.87;95531.25;5012219;28;20509;-48
2022/12/04 00:45:28;;;;;;;13.93;9.60;;;;;;;9.64;72.80;95532.16;5011829;28;20188;-47
2022/12/04 00:47:55;;;;;;;12.37;9.53;;;;;;;9.62;72.94;95531.47;5011755;28;20675;-48
2022/12/04 00:50:23;;;;;;;13.67;9.77;;;;;;;9.61;72.97;95540.03;5011365;28;20189;-47
2022/12/04 00:52:51;;;;;;;13.80;10.00;;;;;;;9.60;72.88;95545.28;5010884;28;20191;-48
2022/12/04 00:55:18;;;;;;;11.67;8.67;;;;;;;9.57;72.79;95541.19;5011550;28;20196;-48
2022/12/04 00:57:45;;;;;;;12.53;8.83;;;;;;;9.41;73.05;95515.97;5011555;28;20228;-48
2022/12/04 01:00:12;;;;;;;11.53;8.53;;;;;;;9.53;73.03;95540.59;5011497;28;20198;-48
2022/12/04 01:02:39;;;;;;;13.03;10.03;;;;;;;9.51;73.07;95534.78;5010829;28;20201;-47
2022/12/04 01:05:06;;;;;;;14.00;9.03;;;;;;;9.50;73.09;95540.84;5011604;28;20196;-47
2022/12/04 01:07:33;;;;;;;10.17;8.57;;;;;;;9.46;73.04;95530.97;5011242;28;20738;-48
2022/12/04 01:10:01;;;;;;;11.77;8.43;;;;;;;9.48;73.13;95542.66;5011166;28;20193;-48
2022/12/04 01:12:28;;;;;;;11.20;8.67;;;;;;;9.42;73.12;95529.53;5011167;28;20192;-48
2022/12/04 01:14:55;;;;;;;15.73;8.77;;;;;;;9.46;73.07;95536.06;5011341;28;20250;-48
2022/12/04 01:17:21;;;;;;;13.47;9.00;;;;;;;9.45;73.16;95536.97;5010967;28;20216;-47
2022/12/04 01:19:48;;;;;;;14.47;9.83;;;;;;;9.43;72.94;95533.72;5011266;28;20189;-48
2022/12/04 01:22:15;;;;;;;13.17;9.13;;;;;;;9.37;73.06;95524.78;5010580;28;20196;-47
2022/12/04 01:24:42;;;;;;;14.37;9.43;;;;;;;9.40;73.05;95529.63;5010870;28;20595;-48
2022/12/04 01:27:10;;;;;;;11.70;9.20;;;;;;;9.37;73.01;95523.94;5010546;28;20259;-48
2022/12/04 01:29:37;;;;;;;13.00;9.67;;;;;;;9.38;73.08;95523.03;5011027;28;20654;-48
2022/12/04 01:32:04;;;;;;;14.07;9.90;;;;;;;9.35;72.95;95531.72;5010844;28;20564;-48
2022/12/04 01:34:30;;;;;;;13.10;9.00;;;;;;;9.34;73.01;95522.44;5010772;28;20216;-47
2022/12/04 01:36:57;;;;;;;13.53;9.83;;;;;;;9.34;73.27;95532.63;5010396;28;20216;-48
2022/12/04 01:39:24;;;;;;;12.10;9.57;;;;;;;9.32;73.22;95524.25;5010630;28;20695;-48
2022/12/04 01:41:51;;;;;;;11.07;8.70;;;;;;;9.31;72.99;95527.75;5010976;28;20185;-48
2022/12/04 01:44:21;;;;;;;13.70;9.73;;;;;;;9.30;73.10;95536.34;5010437;28;20555;-49
2022/12/04 01:46:51;;;;;;;12.67;9.70;;;;;;;9.26;73.07;95520.41;5011198;28;20576;-48
2022/12/04 01:49:21;;;;;;;14.27;9.73;;;;;;;9.28;73.00;95517.75;5010410;28;20662;-48
2022/12/04 01:51:52;;;;;;;14.57;10.10;;;;;;;9.26;73.08;95511.94;5010533;28;20192;-48
2022/12/04 01:54:27;;;;;;;14.27;10.13;;;;;;;9.28;73.01;95517.75;5010444;28;20199;-48
2022/12/04 01:57:00;;;;;;;14.00;9.80;;;;;;;9.06;73.05;95485.28;5008893;28;20290;-48
2022/12/04 01:59:31;;;;;;;12.50;8.90;;;;;;;9.26;73.15;95519.59;5010350;28;20216;-48
2022/12/04 02:02:03;;;;;;;14.63;9.67;;;;;;;9.25;73.06;95512.88;5010426;28;20226;-47
2022/12/04 02:04:31;;;;;;;13.23;9.83;;;;;;;9.25;73.13;95513.69;5010448;28;20967;-48
2022/12/04 02:06:58;;;;;;;12.93;9.57;;;;;;;9.23;73.11;95502.75;5009908;28;20192;-48
2022/12/04 02:09:25;;;;;;;12.87;9.73;;;;;;;9.25;73.15;95512.88;5010392;28;20204;-48
2022/12/04 02:12:00;;;;;;;15.47;9.67;;;;;;;9.21;73.14;95514.81;5010431;28;20279;-48
2022/12/04 02:14:38;;;;;;;11.77;9.57;;;;;;;9.26;73.07;95506.84;5010060;28;20187;-47
2022/12/04 02:17:14;;;;;;;13.43;9.80;;;;;;;9.25;72.86;95508.59;5009433;28;20191;-48
2022/12/04 02:20:08;;;;;;;15.10;10.57;;;;;;;9.26;73.01;95507.66;5010090;28;20220;-48
2022/12/04 02:22:53;;;;;;;15.33;10.03;;;;;;;9.25;73.08;95507.78;5009584;28;20192;-48
2022/12/04 02:25:29;;;;;;;12.70;9.60;;;;;;;9.24;73.09;95504.41;5010140;28;20219;-47
2022/12/04 02:28:04;;;;;;;14.10;10.00;;;;;;;9.24;73.03;95504.41;5009832;28;20235;-47
2022/12/04 02:30:35;;;;;;;14.27;9.83;;;;;;;9.24;73.08;95501.84;5009900;28;20612;-47
2022/12/04 02:33:11;;;;;;;13.90;10.37;;;;;;;9.25;73.13;95497.56;5009973;28;20254;-46
2022/12/04 02:35:42;;;;;;;14.97;11.27;;;;;;;9.24;73.00;95498.47;5009639;28;20227;-47
2022/12/04 02:38:14;;;;;;;12.77;10.37;;;;;;;9.25;73.06;95498.38;5009790;28;20208;-47
2022/12/04 02:40:50;;;;;;;15.30;11.40;;;;;;;9.25;73.11;95500.94;5009104;28;20576;-48
2022/12/04 02:43:25;;;;;;;12.23;9.97;;;;;;;9.26;73.08;95499.19;5009962;28;20203;-48
2022/12/04 02:45:58;;;;;;;14.47;10.77;;;;;;;9.27;72.97;95503.34;5009617;28;20238;-48
2022/12/04 02:48:28;;;;;;;12.87;10.23;;;;;;;9.27;72.97;95493.97;5009230;28;20655;-49
2022/12/04 02:50:56;;;;;;;14.50;10.87;;;;;;;9.28;73.21;95493.06;5009133;28;20200;-47
2022/12/04 02:53:27;;;;;;;17.73;11.43;;;;;;;9.28;72.92;95495.59;5009440;28;20204;-48
2022/12/04 02:55:57;;;;;;;13.43;10.50;;;;;;;9.26;73.13;95496.63;5008978;28;20224;-48
2022/12/04 02:58:29;;;;;;;17.90;12.00;;;;;;;9.30;73.05;95498.84;5009501;28;20212;-48
2022/12/04 03:01:00;;;;;;;13.13;10.20;;;;;;;9.32;72.89;95497.94;5008752;28;20184;-48
2022/12/04 03:03:30;;;;;;;15.07;11.70;;;;;;;8.84;72.87;95427.31;5009407;28;20671;-48
2022/12/04 03:06:00;;;;;;;14.67;11.30;;;;;;;9.34;73.10;95503.75;5009098;28;20188;-49
2022/12/04 03:08:34;;;;;;;16.03;11.07;;;;;;;9.35;72.88;95492.59;5009522;28;20204;-48
2022/12/04 03:11:01;;;;;;;17.53;12.00;;;;;;;9.35;73.05;95493.41;5008660;28;20203;-47
2022/12/04 03:13:36;;;;;;;14.93;10.43;;;;;;;9.35;72.81;95490.06;5009606;28;20199;-48
2022/12/04 03:16:07;;;;;;;16.60;11.07;;;;;;;9.34;73.03;95485.88;5008632;28;20225;-48
2022/12/04 03:18:39;;;;;;;14.27;10.83;;;;;;;9.13;73.10;95450.75;5009162;28;20324;-48
2022/12/04 03:21:09;;;;;;;15.93;11.10;;;;;;;9.33;73.23;95489.38;5008645;28;20196;-49
2022/12/04 03:23:42;;;;;;;16.43;11.00;;;;;;;9.34;73.00;95488.44;5009280;28;20196;-48
2022/12/04 03:26:16;;;;;;;14.43;10.77;;;;;;;8.85;73.24;95412.81;5008738;28;20219;-48
2022/12/04 03:28:49;;;;;;;14.70;9.97;;;;;;;9.30;73.11;95475.06;5009443;28;20280;-48
2022/12/04 03:31:22;;;;;;;15.03;11.50;;;;;;;9.32;73.12;95482.59;5008761;28;20219;-47
2022/12/04 03:33:52;;;;;;;15.53;10.63;;;;;;;9.32;73.19;95480.06;5008669;28;20177;-47
2022/12/04 03:36:25;;;;;;;14.57;10.37;;;;;;;9.32;73.10;95483.41;5008893;28;20653;-48
2022/12/04 03:38:57;;;;;;;14.53;10.90;;;;;;;9.32;73.19;95482.59;5008899;28;20261;-47
2022/12/04 03:41:29;;;;;;;15.97;11.10;;;;;;;9.30;72.83;95488.66;5008664;28;20212;-47
2022/12/04 03:44:04;;;;;;;13.23;9.73;;;;;;;9.31;73.16;95481.78;5008337;28;20640;-48
2022/12/04 03:46:35;;;;;;;15.27;10.77;;;;;;;9.28;73.08;95479.47;5009104;28;20188;-48
2022/12/04 03:49:11;;;;;;;14.40;10.67;;;;;;;8.87;73.29;95405.91;5009262;28;20192;-48
2022/12/04 03:51:43;;;;;;;13.50;10.53;;;;;;;9.19;73.24;95463.06;5008892;28;20247;-48
2022/12/04 03:54:14;;;;;;;12.63;10.53;;;;;;;9.30;73.08;95481.00;5008166;28;20201;-47
2022/12/04 03:56:46;;;;;;;13.57;10.23;;;;;;;9.29;73.12;95476.00;5008673;28;20239;-48
2022/12/04 03:59:20;;;;;;;13.87;10.23;;;;;;;9.30;73.11;95468.22;5008483;28;20212;-48
2022/12/04 04:01:49;;;;;;;14.47;10.37;;;;;;;9.30;73.32;95481.00;5008726;28;20199;-48
2022/12/04 04:04:21;;;;;;;16.77;11.50;;;;;;;9.30;73.21;95477.63;5008585;28;20177;-48
2022/12/04 04:06:53;;;;;;;16.90;10.97;;;;;;;9.31;73.31;95476.69;5008756;28;20192;-48
2022/12/04 04:09:25;;;;;;;12.90;10.03;;;;;;;9.30;73.11;95473.34;5008316;28;20643;-48
2022/12/04 04:12:00;;;;;;;12.23;9.80;;;;;;;9.30;73.16;95475.88;5008928;28;20192;-48
2022/12/04 04:25:54;;;;;;;13.23;10.20;;;;;;;9.12;73.17;95453.44;4986261;28;20236;-48
2022/12/04 04:28:29;;;;;;;15.07;10.83;;;;;;;9.26;73.29;95474.47;4990096;28;20207;-48
2022/12/04 04:31:05;;;;;;;15.87;10.83;;;;;;;9.26;73.16;95481.31;4989775;28;20223;-48
2022/12/04 04:33:34;;;;;;;13.67;9.77;;;;;;;9.25;73.29;95490.72;4990276;28;20584;-47
2022/12/04 04:36:08;;;;;;;14.53;10.23;;;;;;;9.21;73.21;95478.28;4989752;28;20197;-48
2022/12/04 04:38:43;;;;;;;14.20;10.00;;;;;;;9.24;73.17;95481.44;4990163;28;20215;-48
2022/12/04 04:41:14;;;;;;;14.37;10.07;;;;;;;9.15;73.13;95468.50;4989816;28;20691;-48
2022/12/04 04:43:51;;;;;;;13.87;9.63;;;;;;;9.25;73.28;95479.69;4989947;28;20302;-47
2022/12/04 04:46:28;;;;;;;17.20;11.60;;;;;;;9.24;73.40;95481.44;4989863;28;20192;-48
2022/12/04 04:48:58;;;;;;;13.93;10.00;;;;;;;9.24;73.16;95490.81;4988695;28;20500;-49
2022/12/04 04:51:27;;;;;;;12.87;8.87;;;;;;;9.24;73.31;95495.91;4989721;28;20201;-48
2022/12/04 04:53:58;;;;;;;14.83;10.50;;;;;;;9.24;73.57;95493.34;4989837;28;20653;-48
2022/12/04 04:56:25;;;;;;;13.07;9.70;;;;;;;9.24;73.33;95493.34;5003558;28;20240;-48
2022/12/04 04:58:52;;;;;;;13.13;9.17;;;;;;;9.25;73.22;95498.38;5011348;28;20529;-48
2022/12/04 05:01:22;;;;;;;12.97;9.93;;;;;;;9.25;73.24;95505.22;5011614;28;20205;-48
2022/12/04 05:03:49;;;;;;;14.63;10.43;;;;;;;9.25;73.45;95506.03;5011676;28;20200;-48
2022/12/04 05:06:16;;;;;;;14.73;10.60;;;;;;;9.25;73.64;95502.66;5011405;28;20195;-48
2022/12/04 05:08:43;;;;;;;15.13;10.33;;;;;;;9.24;73.44;95501.00;5011677;28;20211;-48
2022/12/04 05:11:12;;;;;;;14.30;9.60;;;;;;;9.24;73.41;95504.41;5010933;28;20200;-47
2022/12/04 05:13:39;;;;;;;13.67;9.97;;;;;;;9.25;73.36;95507.78;5011227;28;20188;-47
2022/12/04 05:16:08;;;;;;;14.63;9.60;;;;;;;9.25;73.34;95516.25;5011518;28;20185;-47
2022/12/04 05:18:37;;;;;;;12.23;10.13;;;;;;;9.25;73.36;95515.44;5011352;28;20231;-47
2022/12/04 05:21:04;;;;;;;12.70;9.70;;;;;;;9.25;73.62;95516.25;5010507;28;20235;-47
2022/12/04 05:23:31;;;;;;;14.07;10.23;;;;;;;9.26;73.53;95519.59;5011140;28;20196;-48
2022/12/04 05:26:02;;;;;;;13.93;10.00;;;;;;;9.27;73.54;95527.13;5011165;28;20278;-47
2022/12/04 05:28:28;;;;;;;12.93;9.63;;;;;;;9.27;73.48;95531.44;5010910;28;20195;-48
2022/12/04 05:30:56;;;;;;;12.67;9.30;;;;;;;8.87;73.43;95459.47;5010784;28;20239;-48
2022/12/04 05:33:23;;;;;;;12.60;9.20;;;;;;;9.27;73.36;95516.94;5010743;28;20207;-48
2022/12/04 05:35:58;;;;;;;13.87;9.47;;;;;;;9.20;73.38;95508.09;5010856;28;20662;-48
2022/12/04 05:38:25;;;;;;;11.73;9.80;;;;;;;9.29;73.40;95520.19;5010142;28;20197;-48
2022/12/04 05:40:52;;;;;;;11.17;8.83;;;;;;;9.28;73.36;95517.75;5010428;28;20215;-48
2022/12/04 05:43:19;;;;;;;14.20;10.27;;;;;;;9.30;73.36;95528.69;5009902;28;20184;-47
2022/12/04 05:45:45;;;;;;;13.07;8.53;;;;;;;9.30;73.24;95519.28;5010625;28;20184;-48
2022/12/04 05:48:12;;;;;;;12.13;8.93;;;;;;;9.28;73.50;95517.75;5010650;28;20230;-49
2022/12/04 05:50:39;;;;;;;10.00;8.43;;;;;;;9.33;73.36;95525.91;5010489;28;20200;-47
2022/12/04 05:53:07;;;;;;;11.33;8.60;;;;;;;9.32;73.61;95531.09;5009923;28;20192;-48
2022/12/04 05:55:34;;;;;;;12.03;9.07;;;;;;;9.37;73.46;95539.25;5010701;28;20231;-48
2022/12/04 05:58:01;;;;;;;12.23;9.20;;;;;;;9.22;73.51;95503.69;5010536;28;20204;-48
2022/12/04 06:00:28;;;;;;;10.80;8.70;;;;;;;9.41;73.22;95530.44;5010290;28;20250;-48
2022/12/04 06:02:55;;;;;;;9.63;8.53;;;;;;;9.42;73.34;95530.34;5010291;28;20180;-49
2022/12/04 06:05:22;;;;;;;11.73;9.03;;;;;;;9.44;73.27;95538.69;5010780;28;20254;-49
2022/12/04 06:07:49;;;;;;;12.13;8.47;;;;;;;9.46;73.34;95536.06;5010877;28;20197;-49
2022/12/04 06:10:17;;;;;;;12.67;8.30;;;;;;;9.36;73.08;95509.53;5010462;28;20191;-49
2022/12/04 06:12:44;;;;;;;12.20;8.77;;;;;;;9.48;73.32;95534.19;5010166;28;20184;-49
2022/12/04 06:15:11;;;;;;;12.80;8.77;;;;;;;9.51;73.22;95532.25;5010012;28;20192;-49
2022/12/04 06:17:38;;;;;;;10.17;8.20;;;;;;;9.54;73.12;95538.84;5010393;28;20189;-49
2022/12/04 06:20:06;;;;;;;9.90;8.40;;;;;;;9.56;72.94;95531.91;5010030;28;20224;-48
2022/12/04 06:22:33;;;;;;;23.00;5.30;;;;;;;9.79;94.35;95531.03;5009215;28;20203;-48
2022/12/04 06:24:59;;;;;;;8.43;4.93;;;;;;;10.04;92.32;95521.56;5009731;28;20262;-47
2022/12/04 06:27:28;;;;;;;7.77;5.40;;;;;;;10.38;87.58;95540.34;5009906;28;20223;-49
2022/12/04 06:29:54;;;;;;;17.33;4.70;;;;;;;10.83;100.00;95519.84;5009684;28;20188;-48
2022/12/04 06:32:21;;;;;;;8.13;4.17;;;;;;;11.63;100.00;95534.88;5010310;28;20203;-49
2022/12/04 06:34:51;;;;;;;7.70;4.10;;;;;;;12.44;100.00;95543.66;5010525;28;20188;-49
2022/12/04 06:37:19;;;;;;;6.73;4.10;;;;;;;13.11;100.00;95526.03;5010602;28;20219;-50
2022/12/04 06:39:46;;;;;;;12.60;3.83;;;;;;;13.87;97.09;95536.50;5009683;28;20244;-48
2022/12/04 06:42:13;;;;;;;4.13;3.50;;;;;;;14.43;93.70;95533.94;5010030;28;20200;-49
2022/12/04 06:44:41;;;;;;;11.33;4.93;;;;;;;14.88;90.66;95530.66;5010428;28;20207;-48
2022/12/04 06:47:08;;;;;;;7.27;4.73;;;;;;;15.34;87.99;95554.69;5009644;28;20189;-47
2022/12/04 06:49:35;;;;;;;14.93;4.47;;;;;;;15.50;86.70;95554.00;5008614;28;20632;-50
2022/12/04 06:52:02;;;;;;;14.67;4.77;;;;;;;15.50;85.15;95556.59;5009711;28;20188;-49
2022/12/04 06:54:28;;;;;;;9.00;4.70;;;;;;;15.38;84.11;95545.72;5010033;28;20188;-48
2022/12/04 06:56:55;;;;;;;11.13;5.40;;;;;;;15.31;83.11;95554.97;5009463;28;20228;-48
2022/12/04 06:59:22;;;;;;;6.03;4.90;;;;;;;15.22;82.28;95555.84;5009484;28;20213;-48
2022/12/04 07:01:50;;;;;;;7.70;5.33;;;;;;;15.14;81.24;95548.81;5006831;28;20200;-47
2022/12/04 07:04:17;;;;;;;7.43;5.53;;;;;;;15.04;80.23;95546.31;5006869;28;20184;-48
2022/12/04 07:06:44;;;;;;;8.60;5.93;;;;;;;15.09;78.52;95548.47;5007476;28;20192;-49
2022/12/04 07:09:14;;;;;;;6.90;5.50;;;;;;;15.14;77.45;95550.59;5007763;28;20208;-48
2022/12/04 07:11:44;;;;;;;11.57;6.07;;;;;;;15.14;76.83;95546.25;5006871;28;20192;-50
2022/12/04 07:14:12;;;;;;;8.10;6.20;;;;;;;15.17;76.49;95553.69;5006790;28;20203;-48
2022/12/04 07:16:39;;;;;;;8.93;5.70;;;;;;;15.17;76.07;95543.41;5007113;28;20193;-49
2022/12/04 07:19:08;;;;;;;7.97;6.60;;;;;;;15.32;75.44;95551.44;5006835;28;20220;-49
2022/12/04 07:21:34;;;;;;;7.13;5.70;;;;;;;15.50;75.12;95546.28;5006888;28;20644;-49
2022/12/04 07:24:02;;;;;;;9.33;5.63;;;;;;;15.72;74.96;95545.91;5007344;28;20192;-48
2022/12/04 07:26:30;;;;;;;8.37;5.93;;;;;;;16.03;74.82;95563.56;5006914;28;20201;-49
2022/12/04 07:28:58;;;;;;;6.93;5.57;;;;;;;16.22;74.52;95554.81;5006829;28;20188;-49
2022/12/04 07:31:27;;;;;;;5.90;5.13;;;;;;;16.42;74.11;95569.16;5003834;28;20203;-48
2022/12/04 07:33:54;;;;;;;6.93;5.30;;;;;;;16.58;73.47;95565.03;5006447;28;20200;-50
2022/12/04 07:36:23;;;;;;;9.20;6.03;;;;;;;16.63;72.89;95555.06;5006610;28;20283;-50
2022/12/04 07:38:51;;;;;;;7.70;5.67;;;;;;;16.66;72.61;95575.41;5006599;28;20272;-49
2022/12/04 07:41:19;;;;;;;6.20;5.03;;;;;;;16.65;72.23;95568.63;4996583;28;20196;-50
2022/12/04 07:43:46;;;;;;;7.20;5.27;;;;;;;16.39;71.94;95548.78;4987047;28;20189;-49
2022/12/04 07:46:15;;;;;;;6.00;4.97;;;;;;;16.47;71.67;95572.06;5004739;28;20560;-50
2022/12/04 07:48:42;;;;;;;6.17;5.10;;;;;;;16.42;71.52;95565.75;5006494;28;20196;-49
2022/12/04 07:51:11;;;;;;;5.67;5.07;;;;;;;16.09;71.21;95521.66;5007210;28;20184;-48
2022/12/04 07:53:40;;;;;;;6.80;5.13;;;;;;;16.27;71.03;95560.31;5006577;28;20180;-49
2022/12/04 07:56:07;;;;;;;5.93;4.90;;;;;;;16.17;70.89;95559.63;5006274;28;20220;-48
2022/12/04 07:58:34;;;;;;;6.37;5.00;;;;;;;16.10;70.69;95561.16;5006360;28;20215;-49
2022/12/04 08:01:06;;;;;;;6.00;5.00;;;;;;;16.02;70.46;95551.63;5008040;28;20216;-49
2022/12/04 08:03:33;;;;;;;5.07;4.57;;;;;;;15.94;70.27;95564.44;5009728;28;20193;-50
2022/12/04 08:06:01;;;;;;;7.77;5.00;;;;;;;15.87;70.16;95566.00;5009318;28;20567;-49
2022/12/04 08:08:28;;;;;;;5.20;4.70;;;;;;;15.75;70.08;95560.25;5012678;28;20199;-49
2022/12/04 08:10:56;;;;;;;5.33;4.77;;;;;;;15.73;69.84;95560.41;5012081;28;20247;-49
2022/12/04 08:13:23;;;;;;;7.67;4.77;;;;;;;15.67;69.85;95557.59;5012728;28;20314;-50
2022/12/04 08:15:50;;;;;;;5.90;4.70;;;;;;;15.40;69.52;95527.50;5012050;28;20203;-50
2022/12/04 08:18:17;;;;;;;4.80;4.40;;;;;;;15.54;69.74;95553.59;5012956;28;20196;-50
2022/12/04 08:20:44;;;;;;;9.03;4.63;;;;;;;15.52;69.64;95552.13;5012533;28;20227;-48
2022/12/04 08:23:11;;;;;;;5.17;4.57;;;;;;;15.48;69.22;95550.78;5012804;28;20192;-49
2022/12/04 08:25:39;;;;;;;5.03;4.53;;;;;;;15.36;69.16;95545.03;5011945;28;20185;-49
2022/12/04 08:28:08;;;;;;;4.80;4.30;;;;;;;15.38;68.93;95557.78;5012440;28;20236;-49
2022/12/04 08:30:35;;;;;;;5.50;4.80;;;;;;;15.35;68.73;95555.50;5011597;28;20519;-50
2022/12/04 08:33:02;;;;;;;4.73;4.27;;;;;;;15.31;68.79;95565.28;5012501;28;20599;-50
2022/12/04 08:35:29;;;;;;;5.07;4.53;;;;;;;15.28;68.61;95563.81;5012238;28;20192;-50
2022/12/04 08:37:55;;;;;;;6.23;4.50;;;;;;;15.23;68.57;95555.69;5012199;28;20203;-48
2022/12/04 08:40:23;;;;;;;4.43;4.03;;;;;;;15.22;68.35;95559.22;5011895;28;20220;-48
2022/12/04 08:42:50;;;;;;;4.30;3.90;;;;;;;15.19;68.06;95553.53;5012166;28;20291;-49
2022/12/04 08:45:18;;;;;;;4.50;4.10;;;;;;;15.06;68.07;95533.28;5012045;28;20640;-49
2022/12/04 08:47:45;;;;;;;4.67;4.17;;;;;;;15.20;67.74;95552.63;5012225;28;20196;-48
2022/12/04 08:50:12;;;;;;;5.40;4.40;;;;;;;14.93;67.72;95509.63;5012365;28;20180;-49
2022/12/04 08:52:38;;;;;;;4.70;4.20;;;;;;;15.16;67.64;95554.66;5011963;28;20192;-47
2022/12/04 08:55:06;;;;;;;4.47;4.03;;;;;;;15.15;67.59;95563.31;5011673;28;20203;-49
2022/12/04 08:57:33;;;;;;;5.03;4.47;;;;;;;15.14;67.31;95542.88;5011719;28;20192;-50
2022/12/04 09:00:00;;;;;;;5.07;4.53;;;;;;;15.17;67.28;95534.84;5011728;28;20227;-49
2022/12/04 09:02:28;;;;;;;5.13;4.17;;;;;;;15.18;66.95;95542.44;5011734;28;20218;-48
2022/12/04 09:04:55;;;;;;;4.20;3.80;;;;;;;15.16;67.02;95546.13;5012212;28;20248;-50
2022/12/04 09:07:22;;;;;;;4.50;3.87;;;;;;;15.17;66.90;95545.16;5011520;28;20192;-49
2022/12/04 09:09:49;;;;;;;4.50;4.03;;;;;;;15.17;66.85;95524.56;5011944;28;20676;-49
2022/12/04 09:12:18;;;;;;;4.17;3.77;;;;;;;15.05;66.84;95503.31;5010856;28;20196;-49
2022/12/04 09:14:45;;;;;;;4.40;4.00;;;;;;;15.17;66.70;95529.72;5011677;28;20196;-49
2022/12/04 09:17:12;;;;;;;5.27;4.30;;;;;;;15.18;66.58;95536.47;5011593;28;20541;-51
2022/12/04 09:19:40;;;;;;;5.00;4.10;;;;;;;15.19;66.46;95532.94;5011548;28;20204;-48
2022/12/04 09:22:07;;;;;;;5.00;4.03;;;;;;;15.27;66.41;95520.94;5011239;28;20181;-49
2022/12/04 09:24:34;;;;;;;4.53;4.13;;;;;;;15.35;66.17;95522.00;5011678;28;20189;-49
2022/12/04 09:27:01;;;;;;;4.03;3.70;;;;;;;15.39;65.84;95507.84;5011676;28;20199;-48
2022/12/04 09:29:28;;;;;;;4.47;3.50;;;;;;;15.44;65.81;95500.47;5011221;28;20586;-48
2022/12/04 09:31:55;;;;;;;4.07;3.63;;;;;;;15.50;65.65;95502.47;5011438;28;20212;-49
2022/12/04 09:34:21;;;;;;;4.30;3.67;;;;;;;15.51;65.70;95499.75;5011049;28;20591;-48
2022/12/04 09:36:50;;;;;;;3.87;3.40;;;;;;;15.41;65.54;95482.72;5011367;28;20200;-49
2022/12/04 09:39:16;;;;;;;3.40;3.20;;;;;;;15.55;65.46;95505.44;5011033;28;20216;-49
2022/12/04 09:42:20;;;;;;;5.37;3.87;;;;;;;15.45;65.27;95474.53;5010941;28;20224;-49
2022/12/04 09:44:52;;;;;;;4.00;3.57;;;;;;;15.55;65.17;95501.06;5011413;28;20184;-48
2022/12/04 09:47:26;;;;;;;4.23;3.60;;;;;;;15.56;65.00;95489.00;5011121;28;20192;-48
2022/12/04 09:49:58;;;;;;;3.53;3.27;;;;;;;15.58;64.91;95489.63;5010947;28;20291;-49
2022/12/04 09:52:44;;;;;;;3.90;3.50;;;;;;;15.61;64.75;95485.97;5010781;28;20200;-49
2022/12/04 09:55:15;;;;;;;3.57;3.23;;;;;;;15.62;64.58;95479.84;5011012;28;20196;-49
2022/12/04 09:57:44;;;;;;;4.60;3.33;;;;;;;15.59;64.46;95475.81;5010477;28;20234;-49
2022/12/04 10:00:14;;;;;;;4.10;3.43;;;;;;;15.67;64.17;95470.75;5010936;28;20209;-49
2022/12/04 10:02:43;;;;;;;3.50;3.20;;;;;;;15.76;63.91;95466.47;5010656;28;20218;-50
2022/12/04 10:05:18;;;;;;;3.53;3.23;;;;;;;15.84;63.48;95451.03;5010833;28;20200;-49
2022/12/04 10:07:55;;;;;;;3.80;3.47;;;;;;;15.94;63.33;95458.69;5010865;28;20191;-51
2022/12/04 10:10:30;;;;;;;3.60;3.30;;;;;;;16.06;62.97;95460.03;5010761;28;20208;-56
2022/12/04 10:13:09;;;;;;;3.30;3.00;;;;;;;16.19;62.62;95452.72;5010306;28;20194;-50
2022/12/04 10:15:46;;;;;;;4.03;3.00;;;;;;;16.28;62.33;95438.88;5010653;28;20192;-50
2022/12/04 10:18:31;;;;;;;3.20;2.90;;;;;;;16.34;62.32;95431.47;5010577;28;20211;-50
2022/12/04 10:21:12;;;;;;;3.60;3.30;;;;;;;16.43;62.05;95433.13;5010273;28;20260;-49
2022/12/04 10:23:54;;;;;;;3.27;2.97;;;;;;;16.50;61.82;95436.72;5009787;28;20196;-49
2022/12/04 10:26:29;;;;;;;3.53;3.23;;;;;;;16.54;61.65;95425.09;5010436;28;20893;-49
2022/12/04 10:29:01;;;;;;;3.37;3.07;;;;;;;16.58;61.55;95423.00;5010444;28;20267;-48
2022/12/04 10:31:30;;;;;;;4.47;3.60;;;;;;;16.54;61.43;95419.94;5010212;28;20194;-49
2022/12/04 10:34:02;;;;;;;3.87;3.37;;;;;;;16.63;61.32;95420.78;5010263;28;20188;-50
2022/12/04 10:36:32;;;;;;;5.93;3.50;;;;;;;16.49;61.32;95402.34;5010283;28;20651;-48
2022/12/04 10:39:06;;;;;;;4.97;3.37;;;;;;;16.67;61.20;95428.06;5010077;28;20196;-49
2022/12/04 10:41:41;;;;;;;3.30;3.00;;;;;;;16.71;61.04;95408.69;5010101;28;20235;-51
2022/12/04 10:44:14;;;;;;;3.60;3.30;;;;;;;16.78;60.71;95407.09;5010038;28;20196;-49
2022/12/04 10:46:42;;;;;;;3.50;3.20;;;;;;;16.83;60.79;95403.25;5010063;28;20188;-49
2022/12/04 10:49:21;;;;;;;3.67;3.00;;;;;;;16.75;60.47;95388.53;5009863;28;20184;-48
2022/12/04 10:51:50;;;;;;;3.67;3.30;;;;;;;16.84;60.67;95410.84;5010004;28;20211;-48
2022/12/04 10:54:23;;;;;;;4.37;3.47;;;;;;;16.84;60.47;95413.44;5009723;28;20188;-49
2022/12/04 10:56:52;;;;;;;4.00;3.63;;;;;;;16.83;60.33;95411.00;5009851;28;20234;-50
2022/12/04 10:59:19;;;;;;;3.60;3.30;;;;;;;16.89;60.41;95410.38;5009645;28;20194;-48
2022/12/04 11:01:47;;;;;;;3.37;3.07;;;;;;;16.95;60.08;95402.78;5009781;28;20661;-48
2022/12/04 11:04:24;;;;;;;3.83;3.40;;;;;;;16.92;59.73;95395.34;5009586;28;20193;-50
2022/12/04 11:07:00;;;;;;;4.03;3.63;;;;;;;16.97;59.81;95387.13;5010284;28;20253;-50
2022/12/04 11:09:29;;;;;;;3.50;3.17;;;;;;;17.13;59.51;95407.00;5009423;28;20278;-49
2022/12/04 11:12:07;;;;;;;3.23;2.93;;;;;;;17.13;59.27;95407.00;5009616;28;20652;-50
2022/12/04 11:14:34;;;;;;;3.57;3.27;;;;;;;17.11;59.46;95414.13;5009313;28;20219;-48
2022/12/04 11:17:05;;;;;;;4.43;3.13;;;;;;;17.11;59.38;95404.59;5009774;28;20180;-51
2022/12/04 11:19:36;;;;;;;3.60;3.30;;;;;;;17.14;59.14;95408.59;5009541;28;20306;-51
2022/12/04 11:22:14;;;;;;;5.23;3.43;;;;;;;17.11;58.83;95406.38;5009690;28;20717;-49
2022/12/04 11:24:50;;;;;;;3.77;3.43;;;;;;;17.13;58.82;95392.28;5009229;28;20192;-49
2022/12/04 11:27:24;;;;;;;3.73;3.43;;;;;;;17.03;58.75;95384.69;5009268;28;20188;-49
2022/12/04 11:29:52;;;;;;;4.40;3.23;;;;;;;17.09;58.61;95400.53;5009457;28;20575;-48
2022/12/04 11:32:23;;;;;;;4.23;3.00;;;;;;;16.94;58.62;95377.09;5009447;28;20184;-49
2022/12/04 11:34:53;;;;;;;3.43;3.13;;;;;;;17.02;58.32;95392.63;5009283;28;20200;-50
2022/12/04 11:37:24;;;;;;;3.57;3.27;;;;;;;17.00;58.34;95392.78;5013333;28;20228;-48
2022/12/04 11:39:55;;;;;;;3.90;3.60;;;;;;;16.95;58.22;95387.28;5013303;28;20672;-49
2022/12/04 11:42:26;;;;;;;2.87;2.67;;;;;;;16.91;58.38;95398.09;5013307;28;20267;-48
2022/12/04 11:44:56;;;;;;;3.90;3.57;;;;;;;16.86;58.27;95403.75;5013183;28;20188;-51
2022/12/04 11:47:25;;;;;;;4.07;3.67;;;;;;;16.77;58.49;95404.69;5013553;28;20208;-50
2022/12/04 11:50:02;;;;;;;4.33;3.93;;;;;;;16.67;58.39;95397.06;5013129;28;20197;-50
2022/12/04 11:52:50;;;;;;;5.03;4.00;;;;;;;16.60;58.43;95405.59;5013368;28;20195;-50
2022/12/04 11:55:24;;;;;;;4.30;3.90;;;;;;;16.47;58.58;95400.88;5013214;28;20725;-54